Asherton, Texas
Current Conditions -  °F | °C
As of 9:35 AM on Friday 19 Dec 2014 (Local Time) from KCZT Reporting Station
Overcast Overcast  
Wind Chill: 12°   Ceiling: 800
Heat Index: 12°   Visibility: 7mi
Dew Point: 12°   Wind: 9mph
Humidity: 100%   Direction: 60°ENE
Pressure: 30.1"   Gusts: NA
Location:  28.44°N, 99.76°W
Report Text: KCZT 191535Z AUTO 06008KT 7SM OVC008 12/12 A3010 RMK AO2
Loading
Personal Weather Stations






























Interactive Weather Map New forecast layout! Learn more

10-Day Weather Forecast

Advertisements
Track Severe Weather on mobile